createdAt,value
2023-01-29T00:01:47.452Z,68.89
2023-01-29T00:04:14.558Z,69.57
2023-01-29T00:06:41.603Z,68.97
2023-01-29T00:09:08.690Z,69.01
2023-01-29T00:11:35.841Z,68.84
2023-01-29T00:14:02.890Z,69.12
2023-01-29T00:16:29.941Z,69.24
2023-01-29T00:18:57.107Z,69.43
2023-01-29T00:21:25.065Z,69.57
2023-01-29T00:23:55.225Z,69.15
2023-01-29T00:26:22.470Z,69.37
2023-01-29T00:28:49.707Z,69.04
2023-01-29T00:31:22.470Z,69.30
2023-01-29T00:33:49.788Z,68.97
2023-01-29T00:36:18.204Z,69.34
2023-01-29T00:38:54.388Z,70.00
2023-01-29T00:41:40.380Z,69.50
2023-01-29T00:44:26.564Z,69.85
2023-01-29T00:46:54.603Z,70.11
2023-01-29T00:49:21.953Z,70.06
2023-01-29T00:52:09.067Z,69.87
2023-01-29T00:54:36.298Z,69.41
2023-01-29T00:57:04.394Z,70.09
2023-01-29T00:59:31.445Z,70.33
2023-01-29T01:02:17.259Z,69.85
2023-01-29T01:04:44.567Z,70.18
2023-01-29T01:07:14.501Z,70.01
2023-01-29T01:10:00.706Z,69.92
2023-01-29T01:12:28.459Z,70.92
2023-01-29T01:14:55.712Z,70.77
2023-01-29T01:17:23.086Z,70.76
2023-01-29T01:19:50.533Z,70.75
2023-01-29T01:22:17.724Z,71.01
2023-01-29T01:24:44.806Z,71.04
2023-01-29T01:27:12.469Z,70.95
2023-01-29T01:29:40.001Z,71.05
2023-01-29T01:32:07.125Z,70.72
2023-01-29T01:34:34.498Z,71.39
2023-01-29T01:37:01.584Z,70.81
2023-01-29T01:39:28.679Z,71.45
2023-01-29T01:41:55.740Z,71.51
2023-01-29T01:44:51.899Z,71.51
2023-01-29T01:47:46.589Z,71.00
2023-01-29T01:50:24.851Z,70.80
2023-01-29T01:52:55.023Z,71.25
2023-01-29T01:55:25.390Z,71.64
2023-01-29T01:57:56.268Z,71.28
2023-01-29T02:00:24.977Z,70.24
2023-01-29T02:03:11.185Z,70.76
2023-01-29T02:05:58.147Z,71.08
2023-01-29T02:09:07.515Z,70.92
2023-01-29T02:11:34.607Z,70.73
2023-01-29T02:14:01.848Z,70.34
2023-01-29T02:16:29.051Z,69.92
2023-01-29T02:18:56.450Z,69.47
2023-01-29T02:21:35.146Z,69.89
2023-01-29T02:24:29.431Z,69.74
2023-01-29T02:27:12.617Z,69.63
2023-01-29T02:29:49.051Z,69.82
2023-01-29T02:32:31.918Z,69.55
2023-01-29T02:35:25.060Z,69.49
2023-01-29T02:37:58.309Z,69.56
2023-01-29T02:40:37.698Z,69.68
2023-01-29T02:43:13.507Z,69.91
2023-01-29T02:45:48.976Z,70.28
2023-01-29T02:48:20.293Z,70.33
2023-01-29T02:50:54.384Z,70.41
2023-01-29T02:53:46.011Z,70.43
2023-01-29T02:56:28.066Z,70.62
2023-01-29T02:59:01.049Z,70.84
2023-01-29T03:01:34.641Z,70.82
2023-01-29T03:04:04.837Z,71.01
2023-01-29T03:06:35.754Z,71.26
2023-01-29T03:09:06.723Z,71.27
2023-01-29T03:11:46.433Z,71.10
2023-01-29T03:14:17.136Z,71.36
2023-01-29T03:16:49.345Z,70.77
2023-01-29T03:19:20.753Z,70.51
2023-01-29T03:21:51.422Z,70.52
2023-01-29T03:24:42.927Z,70.72
2023-01-29T03:27:30.685Z,71.08
2023-01-29T03:30:18.081Z,70.92
2023-01-29T03:32:46.711Z,71.45
2023-01-29T03:35:14.833Z,71.20
2023-01-29T03:37:44.613Z,71.23
2023-01-29T03:40:12.414Z,71.20
2023-01-29T03:43:06.562Z,71.45
2023-01-29T03:45:49.311Z,71.18
2023-01-29T03:48:29.295Z,70.69
2023-01-29T03:51:25.438Z,71.14
2023-01-29T03:54:01.102Z,71.44
2023-01-29T03:56:45.168Z,71.43
2023-01-29T03:59:19.719Z,71.31
2023-01-29T04:01:52.318Z,71.63
2023-01-29T04:04:24.844Z,71.70
2023-01-29T04:06:56.692Z,71.78
2023-01-29T04:09:37.918Z,71.29
2023-01-29T04:12:09.679Z,71.02
2023-01-29T04:14:38.028Z,71.50
2023-01-29T04:17:12.828Z,71.29
2023-01-29T04:19:40.271Z,71.70
2023-01-29T04:22:12.729Z,71.86
2023-01-29T04:24:40.616Z,71.99
2023-01-29T04:27:21.276Z,72.17
2023-01-29T04:30:06.812Z,72.31
2023-01-29T04:32:40.794Z,72.10
2023-01-29T04:35:25.260Z,72.25
2023-01-29T04:38:08.319Z,72.26
2023-01-29T04:41:09.505Z,72.39
2023-01-29T04:44:20.801Z,72.99
2023-01-29T04:47:19.143Z,73.07
2023-01-29T04:50:13.513Z,73.24
2023-01-29T04:52:57.293Z,73.50
2023-01-29T04:55:40.066Z,73.49
2023-01-29T04:58:33.967Z,73.38
2023-01-29T05:01:01.973Z,72.93
2023-01-29T05:03:29.935Z,73.04
2023-01-29T05:05:58.199Z,73.45
2023-01-29T05:08:26.256Z,73.48
2023-01-29T05:10:54.948Z,73.70
2023-01-29T05:13:22.391Z,73.31
2023-01-29T05:16:14.118Z,73.35
2023-01-29T05:18:41.423Z,73.74
2023-01-29T05:21:09.062Z,73.33
2023-01-29T05:23:36.749Z,73.44
2023-01-29T05:26:04.696Z,73.53
2023-01-29T05:28:31.876Z,73.50
2023-01-29T05:30:59.019Z,73.48
2023-01-29T05:33:30.724Z,73.42
2023-01-29T05:36:01.096Z,73.27
2023-01-29T05:38:28.222Z,73.14
2023-01-29T05:40:55.286Z,73.19
2023-01-29T05:43:23.965Z,73.47
2023-01-29T05:45:55.164Z,73.12
2023-01-29T05:48:22.309Z,73.14
2023-01-29T05:50:49.567Z,73.34
2023-01-29T05:53:16.662Z,73.24
2023-01-29T05:55:45.508Z,73.50
2023-01-29T05:58:12.936Z,73.68
2023-01-29T06:00:40.590Z,73.98
2023-01-29T06:03:07.698Z,73.94
2023-01-29T06:05:38.156Z,74.20
2023-01-29T06:08:05.702Z,74.43
2023-01-29T06:10:33.008Z,74.21
2023-01-29T06:13:00.094Z,73.87
2023-01-29T06:15:27.494Z,73.81
2023-01-29T06:17:55.065Z,73.81
2023-01-29T06:20:22.189Z,73.80
2023-01-29T06:22:49.327Z,74.24
2023-01-29T06:25:16.728Z,74.08
2023-01-29T06:27:44.003Z,73.97
2023-01-29T06:30:11.622Z,73.62
2023-01-29T06:32:38.729Z,73.67
2023-01-29T06:35:06.141Z,73.91
2023-01-29T06:37:33.188Z,73.93
2023-01-29T06:40:00.276Z,73.91
2023-01-29T06:42:28.077Z,73.81
2023-01-29T06:44:56.615Z,73.89
2023-01-29T06:47:24.175Z,74.04
2023-01-29T06:49:51.337Z,74.13
2023-01-29T06:52:18.629Z,74.18
2023-01-29T06:54:45.872Z,74.04
2023-01-29T06:57:12.989Z,74.30
2023-01-29T06:59:40.062Z,74.25
2023-01-29T07:02:07.172Z,74.36
2023-01-29T07:04:35.516Z,74.42
2023-01-29T07:07:02.708Z,74.87
2023-01-29T07:09:29.917Z,74.81
2023-01-29T07:11:57.030Z,74.97
2023-01-29T07:14:24.090Z,74.68
2023-01-29T07:16:51.183Z,74.67
2023-01-29T07:19:19.002Z,74.86
2023-01-29T07:21:46.293Z,74.54
2023-01-29T07:24:13.455Z,74.30
2023-01-29T07:26:40.529Z,74.22
2023-01-29T07:29:07.691Z,74.54
2023-01-29T07:31:34.856Z,74.14
2023-01-29T07:34:02.006Z,73.86
2023-01-29T07:36:29.690Z,73.56
2023-01-29T07:38:56.741Z,73.96
2023-01-29T07:41:23.994Z,73.98
2023-01-29T07:43:51.110Z,73.55
2023-01-29T07:46:18.197Z,73.73
2023-01-29T07:48:45.313Z,73.66
2023-01-29T07:51:12.384Z,73.56
2023-01-29T07:53:39.462Z,73.54
2023-01-29T07:56:06.760Z,73.82
2023-01-29T07:58:35.742Z,73.88
2023-01-29T08:01:07.793Z,73.92
2023-01-29T08:03:35.774Z,73.83
2023-01-29T08:06:04.088Z,73.60
2023-01-29T08:08:31.264Z,73.89
2023-01-29T08:11:01.117Z,73.51
2023-01-29T08:13:28.187Z,73.30
2023-01-29T08:15:59.767Z,73.44
2023-01-29T08:18:27.042Z,73.50
2023-01-29T08:20:59.049Z,73.37
2023-01-29T08:23:26.373Z,73.26
2023-01-29T08:25:53.444Z,73.82
2023-01-29T08:28:20.582Z,73.57
2023-01-29T08:30:47.770Z,73.40
2023-01-29T08:33:16.202Z,73.41
2023-01-29T08:35:43.307Z,73.25
2023-01-29T08:38:10.787Z,73.04
2023-01-29T08:40:38.047Z,73.26
2023-01-29T08:43:08.751Z,73.39
2023-01-29T08:45:38.453Z,73.25
2023-01-29T08:48:05.929Z,73.59
2023-01-29T08:50:34.862Z,73.35
2023-01-29T08:53:04.127Z,73.49
2023-01-29T08:55:31.298Z,73.58
2023-01-29T08:57:58.468Z,73.83
2023-01-29T09:00:25.646Z,73.68
2023-01-29T09:02:52.751Z,73.63
2023-01-29T09:05:20.180Z,73.22
2023-01-29T09:07:47.559Z,73.08
2023-01-29T09:10:15.844Z,73.45
2023-01-29T09:12:42.923Z,72.71
2023-01-29T09:15:10.585Z,72.86
2023-01-29T09:17:37.827Z,72.80
2023-01-29T09:20:08.349Z,72.65
2023-01-29T09:22:35.604Z,72.70
2023-01-29T09:25:02.646Z,72.76
2023-01-29T09:27:29.720Z,72.72
2023-01-29T09:29:56.996Z,72.87
2023-01-29T09:32:52.027Z,73.49
2023-01-29T09:35:11.292Z,72.77
2023-01-29T09:37:38.341Z,72.54
2023-01-29T09:40:06.101Z,72.96
2023-01-29T09:42:48.540Z,73.35
2023-01-29T09:45:20.819Z,72.89
2023-01-29T09:47:48.776Z,72.26
2023-01-29T09:50:28.487Z,72.52
2023-01-29T09:53:05.455Z,72.15
2023-01-29T09:55:39.679Z,72.18
2023-01-29T09:58:21.677Z,72.62
2023-01-29T10:01:13.895Z,72.26
2023-01-29T10:04:20.896Z,72.46
2023-01-29T10:06:58.130Z,72.63
2023-01-29T10:10:02.586Z,72.59
2023-01-29T10:12:44.912Z,72.71
2023-01-29T10:15:54.128Z,72.90
2023-01-29T10:18:27.520Z,72.70
2023-01-29T10:21:01.205Z,72.40
2023-01-29T10:23:34.852Z,72.57
2023-01-29T10:26:02.156Z,72.71
2023-01-29T10:28:48.468Z,72.42
2023-01-29T10:31:20.818Z,72.66
2023-01-29T10:34:02.192Z,72.92
2023-01-29T10:36:57.012Z,72.31
2023-01-29T10:39:27.468Z,72.20
2023-01-29T10:42:21.805Z,72.33
2023-01-29T10:45:03.466Z,72.10
2023-01-29T10:47:55.296Z,72.87
2023-01-29T10:50:35.564Z,72.59
2023-01-29T10:53:25.290Z,73.02
2023-01-29T10:56:21.852Z,72.62
2023-01-29T10:58:59.853Z,72.68
2023-01-29T11:01:27.347Z,72.34
2023-01-29T11:04:01.250Z,72.44
2023-01-29T11:06:33.564Z,72.54
2023-01-29T11:09:12.433Z,72.06
2023-01-29T11:12:00.532Z,71.99
2023-01-29T11:14:38.541Z,72.41
2023-01-29T11:17:05.987Z,72.39
2023-01-29T11:19:44.379Z,72.71
2023-01-29T11:22:17.332Z,72.94
2023-01-29T11:24:44.674Z,73.02
2023-01-29T11:27:33.393Z,72.94
2023-01-29T11:30:00.616Z,72.96
2023-01-29T11:32:34.277Z,72.56
2023-01-29T11:35:16.617Z,72.85
2023-01-29T11:37:45.668Z,72.45
2023-01-29T11:40:18.672Z,72.21
2023-01-29T11:42:49.272Z,72.32
2023-01-29T11:45:27.513Z,71.86
2023-01-29T11:47:55.981Z,71.86
2023-01-29T11:50:28.859Z,72.08
2023-01-29T11:52:56.146Z,71.77
2023-01-29T11:55:25.515Z,71.04
2023-01-29T11:58:30.680Z,71.38
2023-01-29T12:00:58.950Z,71.40
2023-01-29T12:03:34.352Z,70.25
2023-01-29T12:06:07.933Z,71.02
2023-01-29T12:08:39.341Z,70.40
2023-01-29T12:11:27.453Z,70.88
2023-01-29T12:13:56.405Z,71.00
2023-01-29T12:16:45.344Z,70.58
2023-01-29T12:19:34.870Z,69.35
2023-01-29T12:22:12.301Z,69.59
2023-01-29T12:24:57.716Z,69.56
2023-01-29T12:28:02.352Z,70.38
2023-01-29T12:30:46.236Z,68.91
2023-01-29T12:33:28.193Z,68.68
2023-01-29T12:36:24.630Z,68.99
2023-01-29T12:38:51.906Z,69.56
2023-01-29T12:41:28.811Z,69.11
2023-01-29T12:43:59.609Z,69.38
2023-01-29T12:46:35.088Z,69.85
2023-01-29T12:49:05.281Z,69.88
2023-01-29T12:51:37.619Z,69.51
2023-01-29T12:54:15.364Z,69.50
2023-01-29T12:56:47.142Z,69.99
2023-01-29T12:59:19.534Z,70.40
2023-01-29T13:02:13.063Z,69.92
2023-01-29T13:04:44.295Z,70.51
2023-01-29T13:07:16.806Z,70.08
2023-01-29T13:09:46.721Z,69.29
2023-01-29T13:12:17.138Z,69.73
2023-01-29T13:14:57.464Z,69.34
2023-01-29T13:17:30.651Z,69.88
2023-01-29T13:20:00.775Z,70.08
2023-01-29T13:22:34.330Z,69.86
2023-01-29T13:25:05.375Z,69.38
2023-01-29T13:27:35.915Z,69.36
2023-01-29T13:30:03.755Z,70.28
2023-01-29T13:32:32.880Z,69.62
2023-01-29T13:35:02.856Z,69.85
2023-01-29T13:37:35.307Z,69.56
2023-01-29T13:40:04.682Z,69.20
2023-01-29T13:42:42.871Z,69.77
2023-01-29T13:45:19.886Z,69.99
2023-01-29T13:47:47.262Z,69.69
2023-01-29T13:50:39.276Z,70.12
2023-01-29T13:53:08.316Z,70.10
2023-01-29T13:55:39.831Z,69.92
2023-01-29T13:58:07.886Z,70.20
2023-01-29T14:00:34.815Z,70.02
2023-01-29T14:03:01.789Z,70.07
2023-01-29T14:05:32.221Z,70.13
2023-01-29T14:07:59.406Z,70.09
2023-01-29T14:10:28.755Z,70.14
2023-01-29T14:13:04.813Z,70.39
2023-01-29T14:15:36.669Z,70.19
2023-01-29T14:18:06.544Z,70.01
2023-01-29T14:20:46.720Z,70.07
2023-01-29T14:23:22.186Z,70.31
2023-01-29T14:25:49.464Z,70.32
2023-01-29T14:28:21.450Z,70.29
2023-01-29T14:30:51.833Z,70.49
2023-01-29T14:33:48.396Z,70.45
2023-01-29T14:36:15.792Z,70.71
2023-01-29T14:38:52.518Z,70.18
2023-01-29T14:41:25.915Z,69.90
2023-01-29T14:44:31.156Z,69.54
2023-01-29T14:46:58.289Z,70.23
2023-01-29T14:49:50.965Z,70.41
2023-01-29T14:52:21.961Z,69.40
2023-01-29T14:54:50.669Z,70.14
2023-01-29T14:57:18.175Z,69.91
2023-01-29T14:59:51.325Z,69.56
2023-01-29T15:02:22.901Z,69.66
2023-01-29T15:04:52.862Z,69.49
2023-01-29T15:07:35.942Z,69.47
2023-01-29T15:10:32.768Z,69.68
2023-01-29T15:13:24.247Z,69.30
2023-01-29T15:15:54.315Z,69.75
2023-01-29T15:18:32.974Z,70.10
2023-01-29T15:21:05.919Z,69.79
2023-01-29T15:23:34.272Z,69.63
2023-01-29T15:26:03.684Z,70.25
2023-01-29T15:28:32.384Z,69.73
2023-01-29T15:31:01.485Z,69.59
2023-01-29T15:33:28.932Z,69.56
2023-01-29T15:36:06.792Z,69.70
2023-01-29T15:38:34.840Z,69.99
2023-01-29T15:41:13.983Z,70.27
2023-01-29T15:43:46.632Z,70.05
2023-01-29T15:46:22.291Z,69.92
2023-01-29T15:48:50.282Z,70.38
2023-01-29T15:51:22.309Z,70.61
2023-01-29T15:53:53.214Z,70.40
2023-01-29T15:56:24.188Z,70.50
2023-01-29T15:58:52.019Z,70.59
2023-01-29T16:01:19.107Z,70.44
2023-01-29T16:03:46.571Z,70.89
2023-01-29T16:06:14.122Z,70.72
2023-01-29T16:08:42.336Z,70.87
2023-01-29T16:11:09.608Z,71.31
2023-01-29T16:13:41.038Z,71.03
2023-01-29T16:16:27.665Z,71.26
2023-01-29T16:19:00.395Z,71.44
2023-01-29T16:21:39.766Z,71.33
2023-01-29T16:24:11.842Z,71.73
2023-01-29T16:26:43.263Z,71.96
2023-01-29T16:29:15.660Z,71.65
2023-01-29T16:31:44.638Z,71.46
2023-01-29T16:34:19.039Z,71.43
2023-01-29T16:36:47.137Z,71.75
2023-01-29T16:39:19.049Z,71.68
2023-01-29T16:42:10.784Z,71.32
2023-01-29T16:44:39.553Z,71.66
2023-01-29T16:47:12.856Z,71.86
2023-01-29T16:49:43.726Z,71.69
2023-01-29T16:52:19.741Z,71.63
2023-01-29T16:54:46.799Z,71.54
2023-01-29T16:57:17.158Z,71.87
2023-01-29T16:59:44.377Z,71.55
2023-01-29T17:02:35.097Z,71.73
2023-01-29T17:05:08.842Z,71.46
2023-01-29T17:07:36.663Z,71.52
2023-01-29T17:10:06.631Z,71.63
2023-01-29T17:12:34.087Z,71.89
2023-01-29T17:15:04.155Z,71.89
2023-01-29T17:17:33.331Z,71.85
2023-01-29T17:20:11.859Z,71.47
2023-01-29T17:22:39.101Z,71.73
2023-01-29T17:25:06.465Z,72.06
2023-01-29T17:27:33.546Z,71.80
2023-01-29T17:30:00.629Z,72.11
2023-01-29T17:32:44.829Z,72.07
2023-01-29T17:35:17.652Z,72.05
2023-01-29T17:37:45.002Z,72.15
2023-01-29T17:40:21.753Z,71.73
2023-01-29T17:42:48.810Z,71.72
2023-01-29T17:45:16.341Z,71.66
2023-01-29T17:47:43.676Z,71.71
2023-01-29T17:50:23.880Z,71.65
2023-01-29T17:52:51.011Z,71.55
2023-01-29T17:55:18.656Z,71.61
2023-01-29T17:57:45.799Z,71.68
2023-01-29T18:00:21.538Z,71.49
2023-01-29T18:02:48.763Z,71.55
2023-01-29T18:05:16.856Z,71.68
2023-01-29T18:07:45.191Z,71.81
2023-01-29T18:10:19.796Z,71.98
2023-01-29T18:12:47.032Z,71.50
2023-01-29T18:15:14.985Z,71.54
2023-01-29T18:17:42.700Z,71.54
2023-01-29T18:20:28.140Z,71.69
2023-01-29T18:22:55.445Z,71.68
2023-01-29T18:25:24.752Z,71.64
2023-01-29T18:27:52.972Z,72.12
2023-01-29T18:30:20.333Z,71.84
2023-01-29T18:32:48.361Z,71.83
2023-01-29T18:35:16.141Z,71.89
2023-01-29T18:37:44.498Z,71.87
2023-01-29T18:40:17.294Z,71.61
2023-01-29T18:42:45.387Z,72.00
2023-01-29T18:45:13.235Z,71.81
2023-01-29T18:47:40.461Z,71.91
2023-01-29T18:50:08.054Z,71.96
2023-01-29T18:52:35.254Z,72.11
2023-01-29T18:55:02.416Z,72.09
2023-01-29T18:58:25.003Z,72.09
2023-01-29T19:00:17.000Z,72.24
2023-01-29T19:02:45.122Z,71.85
2023-01-29T19:05:12.363Z,72.39
2023-01-29T19:07:39.495Z,71.82
2023-01-29T19:10:09.242Z,71.85
2023-01-29T19:12:36.517Z,71.93
2023-01-29T19:15:03.766Z,72.00
2023-01-29T19:17:30.865Z,72.11
2023-01-29T19:20:02.008Z,71.76
2023-01-29T19:22:29.489Z,71.41
2023-01-29T19:24:56.554Z,71.69
2023-01-29T19:27:26.996Z,71.89
2023-01-29T19:29:55.880Z,71.80
2023-01-29T19:32:23.070Z,71.75
2023-01-29T19:34:50.271Z,71.70
2023-01-29T19:37:17.322Z,71.52
2023-01-29T19:39:44.407Z,71.73
2023-01-29T19:42:11.633Z,71.61
2023-01-29T19:44:39.831Z,71.65
2023-01-29T19:47:06.987Z,71.73
2023-01-29T19:49:34.226Z,71.44
2023-01-29T19:52:01.910Z,71.43
2023-01-29T19:54:29.578Z,71.64
2023-01-29T19:56:56.891Z,71.68
2023-01-29T19:59:23.962Z,71.83
2023-01-29T20:01:51.012Z,71.67
2023-01-29T20:04:18.278Z,71.82
2023-01-29T20:06:45.374Z,71.80
2023-01-29T20:09:12.433Z,71.83
2023-01-29T20:11:39.518Z,71.86
2023-01-29T20:14:06.647Z,72.05
2023-01-29T20:16:33.787Z,72.11
2023-01-29T20:19:13.977Z,71.86
2023-01-29T20:21:45.349Z,71.95
2023-01-29T20:24:13.416Z,72.12
2023-01-29T20:26:40.674Z,72.26
2023-01-29T20:29:07.789Z,72.10
2023-01-29T20:31:36.848Z,72.23
2023-01-29T20:34:03.905Z,72.24
2023-01-29T20:36:31.035Z,72.56
2023-01-29T20:38:58.078Z,72.79
2023-01-29T20:41:25.493Z,72.58
2023-01-29T20:43:52.634Z,72.72
2023-01-29T20:46:19.787Z,72.77
2023-01-29T20:48:48.801Z,72.61
2023-01-29T20:51:18.088Z,72.52
2023-01-29T20:53:46.672Z,72.70
2023-01-29T20:56:15.332Z,72.93
2023-01-29T20:58:42.716Z,72.94
2023-01-29T21:01:11.343Z,72.96
2023-01-29T21:03:39.337Z,73.11
2023-01-29T21:06:09.845Z,73.00
2023-01-29T21:08:37.875Z,72.85
2023-01-29T21:11:06.289Z,73.17
2023-01-29T21:13:33.496Z,73.28
2023-01-29T21:16:00.798Z,73.11
2023-01-29T21:18:28.170Z,73.20
2023-01-29T21:20:55.493Z,73.35
2023-01-29T21:23:22.633Z,73.35
2023-01-29T21:25:49.785Z,73.19
2023-01-29T21:28:17.251Z,73.26
2023-01-29T21:30:44.451Z,73.23
2023-01-29T21:33:11.770Z,72.95
2023-01-29T21:35:38.918Z,73.17
2023-01-29T21:38:05.981Z,72.68
2023-01-29T21:40:33.075Z,72.92
2023-01-29T21:43:12.259Z,72.66
2023-01-29T21:45:40.377Z,72.53
2023-01-29T21:48:08.466Z,72.87
2023-01-29T21:50:36.915Z,72.73
2023-01-29T21:53:04.101Z,72.48
2023-01-29T21:55:33.545Z,73.18
2023-01-29T21:58:00.638Z,72.76
2023-01-29T22:00:27.896Z,73.33
2023-01-29T22:02:55.177Z,73.13
2023-01-29T22:05:22.346Z,72.99
2023-01-29T22:07:49.692Z,73.22
2023-01-29T22:10:18.283Z,73.28
2023-01-29T22:12:46.115Z,73.28
2023-01-29T22:15:14.078Z,73.38
2023-01-29T22:17:41.693Z,73.42
2023-01-29T22:20:13.375Z,73.24
2023-01-29T22:22:40.497Z,73.62
2023-01-29T22:25:08.031Z,73.65
2023-01-29T22:27:35.105Z,73.64
2023-01-29T22:30:03.366Z,73.31
2023-01-29T22:32:32.185Z,73.77
2023-01-29T22:34:59.274Z,73.53
2023-01-29T22:37:26.345Z,73.72
2023-01-29T22:39:53.398Z,73.64
2023-01-29T22:42:20.793Z,73.72
2023-01-29T22:44:48.510Z,73.68
2023-01-29T22:47:15.809Z,73.76
2023-01-29T22:49:45.501Z,73.71
2023-01-29T22:52:12.748Z,73.82
2023-01-29T22:54:41.962Z,73.45
2023-01-29T22:57:13.844Z,73.63
2023-01-29T22:59:41.115Z,73.63
2023-01-29T23:02:09.472Z,73.73
2023-01-29T23:04:36.830Z,73.72
2023-01-29T23:07:04.265Z,73.56
2023-01-29T23:09:31.372Z,73.50
2023-01-29T23:11:58.452Z,73.11
2023-01-29T23:14:25.562Z,73.29
2023-01-29T23:16:52.609Z,73.33
2023-01-29T23:19:19.704Z,73.02
2023-01-29T23:21:46.773Z,73.25
2023-01-29T23:24:13.984Z,72.88
2023-01-29T23:26:59.663Z,72.67
2023-01-29T23:29:26.964Z,72.71
2023-01-29T23:31:54.354Z,72.79
2023-01-29T23:34:21.517Z,72.28
2023-01-29T23:36:48.628Z,72.17
2023-01-29T23:39:15.952Z,72.23
2023-01-29T23:41:43.239Z,72.26
2023-01-29T23:44:10.337Z,72.21
2023-01-29T23:46:37.646Z,72.17
2023-01-29T23:49:04.822Z,72.29
2023-01-29T23:51:31.901Z,72.16
2023-01-29T23:53:58.968Z,72.32
2023-01-29T23:56:26.039Z,72.14
2023-01-29T23:58:54.809Z,72.44
